< < Back
Terminal Aerodrome Forecast


Current Version              Previous Versions:   1  2  3  4  5  6  7  8  9  

Terminal Aerodrome Forecast

544
FTUS44 KMOB 242300
TAFPNS
TAF
KPNS 242326Z 2500/2524 35003KT P6SM SKC
     FM251500 01007KT P6SM SKC=



Latest METAR

538
SAUS70 KWBC 250300 RRH
MTRPNS
METAR KPNS 250253Z 36004KT 10SM CLR 16/07 A3006 RMK AO2 SLP180 T01610067
51015


USA.gov is the U.S. government's official web portal to all federal, state and local government web resources and services.